3AZ1 weather

Pixley-Richards Gilbert Heliport
Gilbert, Arizona, United States

Public forecast

Using degrees Fahrenheit for public forecast. Weather courtesy of forecast.io.

Closest aviation weather report (METAR) to Pixley-Richards Gilbert Heliport

Closest report is Chandler Municipal Airport, 6.3 nm (11.7 km) SSE. Retrieved 2020/07/08 00:47 UTC (18 minutes ago):

KCHD 080047Z 29004KT 10SM FEW120 43/05 A2971

Closest aviation forecast (TAF) to Pixley-Richards Gilbert Heliport

Closest forecast is Phoenix Sky Harbor International Airport, 9.5 nm (17.6 km) WNW. Retrieved 2020-07-08 00:39 UTC (26 minutes ago):

TAF KPHX 072336Z 0800/0906 28007G18KT P6SM FEW120 FM080300 25006KT P6SM FEW120 FM081000 10004KT P6SM SKC FM081700 18007KT P6SM FEW120 FM082200 26007KT P6SM SKC